Time;durP1;ratioP1;P1;durP2;ratioP2;P2;SDS_P1;SDS_P2;PMS_P1;PMS_P2;Temp;Humidity;BMP_temperature;BMP_pressure;BME280_temperature;BME280_humidity;BME280_pressure;Samples;Min_cycle;Max_cycle;Signal;HPM_P1;HPM_P2
2021/11/14 00:02:12;;;;;;;0.20;0.20;;;8.50;99.90;;;;;;5013993;28;20470;-74
2021/11/14 00:04:38;;;;;;;0.10;0.10;;;8.60;99.90;;;;;;5013833;28;20026;-74
2021/11/14 00:07:04;;;;;;;0.10;0.10;;;8.70;99.90;;;;;;5013699;28;20379;-75
2021/11/14 00:09:30;;;;;;;0.10;0.10;;;8.70;99.90;;;;;;5013771;28;20543;-74
2021/11/14 00:11:56;;;;;;;0.10;0.10;;;8.80;99.90;;;;;;5012489;28;20026;-74
2021/11/14 00:14:22;;;;;;;0.10;0.10;;;8.80;99.90;;;;;;5013719;28;20022;-74
2021/11/14 00:16:50;;;;;;;0.10;0.10;;;8.60;99.90;;;;;;5013656;28;20433;-74
2021/11/14 00:19:17;;;;;;;0.10;0.10;;;8.70;99.90;;;;;;5013575;28;20022;-74
2021/11/14 00:21:43;;;;;;;0.20;0.20;;;8.60;99.90;;;;;;5013582;28;20025;-74
2021/11/14 00:24:13;;;;;;;0.13;0.13;;;8.60;99.90;;;;;;5012364;28;20018;-74
2021/11/14 00:26:40;;;;;;;0.10;0.10;;;8.60;99.90;;;;;;5013495;28;20470;-74
2021/11/14 00:29:07;;;;;;;0.10;0.10;;;8.40;99.90;;;;;;5012067;28;20057;-74
2021/11/14 00:31:33;;;;;;;0.10;0.10;;;8.30;99.90;;;;;;5013386;28;20473;-74
2021/11/14 00:33:59;;;;;;;0.10;0.10;;;8.40;99.90;;;;;;5013330;28;20033;-74
2021/11/14 00:36:29;;;;;;;0.10;0.10;;;8.30;99.90;;;;;;5013218;28;20164;-74
2021/11/14 00:38:56;;;;;;;0.10;0.10;;;8.30;99.90;;;;;;5011930;28;20105;-74
2021/11/14 00:41:24;;;;;;;0.20;0.20;;;8.30;99.90;;;;;;5013226;28;20482;-73
2021/11/14 00:43:50;;;;;;;0.10;0.10;;;8.30;99.90;;;;;;5013194;28;20026;-74
2021/11/14 00:46:17;;;;;;;0.10;0.10;;;8.20;99.90;;;;;;5013180;28;20084;-74
2021/11/14 00:48:43;;;;;;;0.10;0.10;;;8.30;99.90;;;;;;5011915;28;20079;-74
2021/11/14 00:51:17;;;;;;;0.10;0.10;;;8.40;99.90;;;;;;5012976;28;20033;-74
2021/11/14 00:53:43;;;;;;;0.30;0.30;;;8.50;99.90;;;;;;5012414;28;20071;-74
2021/11/14 00:56:09;;;;;;;1.95;1.85;;;8.30;99.90;;;;;;5012809;28;20396;-74
2021/11/14 00:58:35;;;;;;;0.10;0.10;;;8.30;99.90;;;;;;5011605;28;20026;-74
2021/11/14 01:01:01;;;;;;;0.10;0.10;;;8.30;99.90;;;;;;5012861;28;20105;-74
2021/11/14 01:03:27;;;;;;;0.10;0.10;;;8.40;99.90;;;;;;5013193;28;20018;-74
2021/11/14 01:05:54;;;;;;;0.10;0.10;;;8.40;99.90;;;;;;5012674;28;20030;-74
2021/11/14 01:08:20;;;;;;;0.10;0.10;;;8.40;99.90;;;;;;5012843;28;20030;-74
2021/11/14 01:10:50;;;;;;;0.10;0.10;;;8.50;99.90;;;;;;5011315;28;20030;-74
2021/11/14 01:13:16;;;;;;;0.57;0.57;;;8.50;99.90;;;;;;5011322;28;20029;-74
2021/11/14 01:15:43;;;;;;;0.15;0.15;;;8.50;99.90;;;;;;5012515;28;20021;-74
2021/11/14 01:18:10;;;;;;;0.20;0.20;;;8.50;99.90;;;;;;5012625;28;20030;-74
2021/11/14 01:20:38;;;;;;;0.10;0.10;;;8.50;99.90;;;;;;5012539;28;20022;-74
2021/11/14 01:23:06;;;;;;;0.10;0.10;;;8.50;99.90;;;;;;5012513;28;20030;-74
2021/11/14 01:25:33;;;;;;;0.10;0.10;;;8.60;99.90;;;;;;5012562;28;20084;-74
2021/11/14 01:27:59;;;;;;;0.57;0.57;;;8.60;99.90;;;;;;5011277;28;20049;-74
2021/11/14 01:30:28;;;;;;;0.10;0.10;;;8.50;99.90;;;;;;5012350;28;20386;-74
2021/11/14 01:32:56;;;;;;;0.10;0.10;;;8.40;99.90;;;;;;5011121;28;20068;-74
2021/11/14 01:35:22;;;;;;;0.10;0.10;;;8.40;99.90;;;;;;5012234;28;20026;-74
2021/11/14 01:37:49;;;;;;;0.20;0.20;;;8.50;99.90;;;;;;5012657;28;20022;-74
2021/11/14 01:40:29;;;;;;;0.10;0.10;;;8.60;99.90;;;;;;5010982;28;20022;-73
2021/11/14 01:42:55;;;;;;;0.17;0.17;;;8.60;99.90;;;;;;5012299;28;20056;-74
2021/11/14 01:45:22;;;;;;;0.10;0.10;;;8.40;99.90;;;;;;5010902;28;20026;-74
2021/11/14 01:47:48;;;;;;;0.10;0.10;;;8.30;99.90;;;;;;5012211;28;20078;-73
2021/11/14 01:50:16;;;;;;;0.22;0.22;;;8.40;99.90;;;;;;5010814;28;20117;-74
2021/11/14 01:52:44;;;;;;;0.10;0.10;;;8.40;99.90;;;;;;5012176;28;20389;-74
2021/11/14 01:55:12;;;;;;;0.10;0.10;;;8.40;99.90;;;;;;5012040;28;20113;-73
2021/11/14 01:57:38;;;;;;;0.10;0.10;;;8.40;99.90;;;;;;5012060;28;20387;-74
2021/11/14 02:00:21;;;;;;;0.10;0.10;;;8.40;99.90;;;;;;5012070;28;20022;-74
2021/11/14 02:02:47;;;;;;;0.13;0.13;;;8.40;99.90;;;;;;5012189;28;20029;-74
2021/11/14 02:05:12;;;;;;;0.10;0.10;;;8.40;99.90;;;;;;5014405;28;20022;-73
2021/11/14 02:07:38;;;;;;;0.10;0.10;;;8.50;99.90;;;;;;5015981;28;20095;-73
2021/11/14 02:10:07;;;;;;;0.10;0.10;;;8.50;99.90;;;;;;5015998;28;20033;-74
2021/11/14 02:12:33;;;;;;;0.10;0.10;;;8.50;99.90;;;;;;5016041;28;20168;-74
2021/11/14 02:14:59;;;;;;;0.10;0.10;;;8.50;99.90;;;;;;5015877;28;20109;-74
2021/11/14 02:17:25;;;;;;;0.10;0.10;;;8.50;99.90;;;;;;5015839;28;20024;-74
2021/11/14 02:19:53;;;;;;;0.10;0.10;;;8.50;99.90;;;;;;5014558;28;20022;-74
2021/11/14 02:22:19;;;;;;;0.10;0.10;;;8.50;99.90;;;;;;5014490;28;20494;-74
2021/11/14 02:24:46;;;;;;;0.10;0.10;;;8.50;99.90;;;;;;5014508;28;20032;-74
2021/11/14 02:27:14;;;;;;;0.13;0.13;;;8.40;99.90;;;;;;5014468;28;20061;-73
2021/11/14 02:29:41;;;;;;;0.10;0.10;;;8.50;99.90;;;;;;5015508;28;20096;-74
2021/11/14 02:32:08;;;;;;;0.10;0.10;;;8.30;99.90;;;;;;5015606;28;20422;-74
2021/11/14 02:34:34;;;;;;;0.10;0.10;;;8.30;99.90;;;;;;5014326;28;20437;-74
2021/11/14 02:37:00;;;;;;;0.10;0.10;;;8.20;99.90;;;;;;5015548;28;20026;-74
2021/11/14 02:39:26;;;;;;;0.10;0.10;;;8.30;99.90;;;;;;5014084;28;20116;-74
2021/11/14 02:41:52;;;;;;;0.30;0.30;;;8.30;99.90;;;;;;5014151;28;20022;-74
2021/11/14 02:44:18;;;;;;;0.82;0.82;;;8.30;99.90;;;;;;5014016;28;20026;-74
2021/11/14 02:46:44;;;;;;;0.10;0.10;;;8.20;99.90;;;;;;5015367;28;20386;-74
2021/11/14 02:49:10;;;;;;;0.20;0.20;;;8.20;99.90;;;;;;5015220;28;20030;-74
2021/11/14 02:51:37;;;;;;;0.10;0.10;;;8.20;99.90;;;;;;5014130;28;20452;-74
2021/11/14 02:54:04;;;;;;;0.10;0.10;;;8.20;99.90;;;;;;5015320;28;20520;-74
2021/11/14 02:56:30;;;;;;;0.10;0.10;;;8.10;99.90;;;;;;5013744;28;20030;-74
2021/11/14 02:58:57;;;;;;;0.32;0.32;;;8.10;99.90;;;;;;5015022;28;20063;-74
2021/11/14 03:01:34;;;;;;;0.10;0.10;;;8.00;99.90;;;;;;5015168;28;20018;-74
2021/11/14 03:04:01;;;;;;;0.40;0.40;;;8.00;99.90;;;;;;5015074;28;20037;-74
2021/11/14 03:06:29;;;;;;;0.20;0.20;;;8.10;99.90;;;;;;5014936;28;20164;-74
2021/11/14 03:08:55;;;;;;;0.10;0.10;;;8.20;99.90;;;;;;5014845;28;20030;-73
2021/11/14 03:11:22;;;;;;;0.10;0.10;;;8.20;99.90;;;;;;5014982;28;20041;-73
2021/11/14 03:13:48;;;;;;;0.10;0.10;;;8.30;99.90;;;;;;5014909;28;20030;-74
2021/11/14 03:16:17;;;;;;;0.10;0.10;;;8.30;99.90;;;;;;5014168;28;20034;-73
2021/11/14 03:18:43;;;;;;;0.10;0.10;;;8.20;99.90;;;;;;5013571;28;20476;-74
2021/11/14 03:21:09;;;;;;;0.10;0.10;;;8.20;99.90;;;;;;5014692;28;20022;-74
2021/11/14 03:23:35;;;;;;;0.40;0.40;;;8.00;99.90;;;;;;5014664;28;20025;-74
2021/11/14 03:26:02;;;;;;;0.10;0.10;;;8.00;99.90;;;;;;5014731;28;20088;-74
2021/11/14 03:28:29;;;;;;;0.10;0.10;;;8.00;99.90;;;;;;5013223;28;20033;-74
2021/11/14 03:30:56;;;;;;;0.10;0.10;;;8.10;99.90;;;;;;5014452;28;20030;-74
2021/11/14 03:33:23;;;;;;;0.10;0.10;;;8.10;99.90;;;;;;5014497;28;20026;-74
2021/11/14 03:35:50;;;;;;;0.10;0.10;;;8.00;99.90;;;;;;5014363;28;20498;-74
2021/11/14 03:38:22;;;;;;;0.10;0.10;;;8.00;99.90;;;;;;5014340;28;20030;-74
2021/11/14 03:40:48;;;;;;;;;;;8.00;99.90;;;;;;5013468;28;20034;-74
2021/11/14 03:43:14;;;;;;;0.10;0.10;;;8.00;99.90;;;;;;5014334;28;19905;-74
2021/11/14 03:45:41;;;;;;;0.10;0.10;;;8.10;99.90;;;;;;5014177;28;20025;-73
2021/11/14 03:48:07;;;;;;;0.10;0.10;;;8.20;99.90;;;;;;5014143;28;20030;-74
2021/11/14 03:50:33;;;;;;;0.20;0.20;;;8.20;99.90;;;;;;5014049;28;20029;-73
2021/11/14 03:52:59;;;;;;;0.10;0.10;;;8.20;99.90;;;;;;5012751;28;20026;-74
2021/11/14 03:55:24;;;;;;;0.10;0.10;;;8.20;99.90;;;;;;5012619;28;20029;-74
2021/11/14 03:57:50;;;;;;;0.10;0.10;;;8.10;99.90;;;;;;5012733;28;20029;-73
2021/11/14 04:00:25;;;;;;;0.10;0.10;;;8.20;99.90;;;;;;5014001;28;20029;-73
2021/11/14 04:02:53;;;;;;;0.10;0.10;;;8.10;99.90;;;;;;5013962;28;20018;-73
2021/11/14 04:05:20;;;;;;;0.20;0.20;;;8.20;99.90;;;;;;5013821;28;20044;-74
2021/11/14 04:07:46;;;;;;;0.17;0.17;;;8.20;99.90;;;;;;5013768;28;20034;-74
2021/11/14 04:10:13;;;;;;;0.10;0.10;;;8.20;99.90;;;;;;5013727;28;20041;-74
2021/11/14 04:12:40;;;;;;;0.20;0.20;;;8.20;99.90;;;;;;5013740;28;20582;-74
2021/11/14 04:15:07;;;;;;;0.20;0.20;;;8.20;99.90;;;;;;5013566;28;20033;-74
2021/11/14 04:17:34;;;;;;;0.10;0.10;;;8.30;99.90;;;;;;5013595;28;20022;-74
2021/11/14 04:20:00;;;;;;;0.10;0.10;;;8.40;99.90;;;;;;5012279;28;20018;-74
2021/11/14 04:22:26;;;;;;;0.10;0.10;;;8.40;99.90;;;;;;5012448;28;20208;-74
2021/11/14 04:24:52;;;;;;;0.10;0.10;;;8.40;99.90;;;;;;5013505;28;20077;-74
2021/11/14 04:27:18;;;;;;;0.10;0.10;;;8.30;99.90;;;;;;5013049;28;20033;-74
2021/11/14 04:29:44;;;;;;;0.10;0.10;;;8.30;99.90;;;;;;5012898;28;20065;-74
2021/11/14 04:32:09;;;;;;;0.47;0.47;;;8.40;99.90;;;;;;5012087;28;20026;-74
2021/11/14 04:34:35;;;;;;;0.13;0.13;;;8.50;99.90;;;;;;5013198;28;20018;-74
2021/11/14 04:37:01;;;;;;;0.10;0.10;;;8.30;99.90;;;;;;5013219;28;20026;-74
2021/11/14 04:39:27;;;;;;;0.10;0.10;;;8.30;99.90;;;;;;5011948;28;20571;-74
2021/11/14 04:41:53;;;;;;;0.10;0.10;;;8.30;99.90;;;;;;5012105;28;20068;-74
2021/11/14 04:44:19;;;;;;;0.20;0.20;;;8.30;99.90;;;;;;5013270;28;20053;-74
2021/11/14 04:46:45;;;;;;;0.30;0.30;;;8.30;99.90;;;;;;5011983;28;20052;-74
2021/11/14 04:49:10;;;;;;;0.15;0.15;;;8.30;99.90;;;;;;4995514;28;20060;-74
2021/11/14 04:51:36;;;;;;;0.20;0.20;;;8.40;99.90;;;;;;5011760;28;20489;-74
2021/11/14 04:54:02;;;;;;;0.10;0.10;;;8.40;99.90;;;;;;5011857;28;20144;-74
2021/11/14 04:56:28;;;;;;;0.10;0.10;;;8.50;99.90;;;;;;5011692;28;20042;-73
2021/11/14 04:58:54;;;;;;;0.10;0.10;;;8.50;99.90;;;;;;5011648;28;20025;-73
2021/11/14 05:01:20;;;;;;;0.10;0.10;;;8.50;99.90;;;;;;5011575;28;20173;-74
2021/11/14 05:03:45;;;;;;;0.10;0.10;;;8.40;99.90;;;;;;5012947;28;20428;-74
2021/11/14 05:06:13;;;;;;;0.10;0.10;;;8.40;99.90;;;;;;5036421;23;20034;-92
2021/11/14 05:08:39;;;;;;;0.10;0.10;;;8.40;99.90;;;;;;4981235;28;20031;-93
2021/11/14 05:11:05;;;;;;;0.10;0.10;;;8.20;99.90;;;;;;4982833;28;20014;-92
2021/11/14 05:13:34;;;;;;;0.10;0.10;;;8.30;99.90;;;;;;4997578;28;20026;-93
2021/11/14 05:16:00;;;;;;;0.20;0.20;;;8.40;99.90;;;;;;4981119;28;20034;-92
2021/11/14 05:18:25;;;;;;;0.10;0.10;;;8.30;99.90;;;;;;4997416;28;20049;-90
2021/11/14 05:20:51;;;;;;;0.10;0.10;;;8.40;99.90;;;;;;4994486;28;20034;-91
2021/11/14 05:23:17;;;;;;;0.10;0.10;;;8.50;99.90;;;;;;4996368;28;20098;-90
2021/11/14 05:25:43;;;;;;;0.10;0.10;;;8.40;99.90;;;;;;4998253;28;20053;-91
2021/11/14 05:28:10;;;;;;;0.10;0.10;;;8.40;99.90;;;;;;4997723;28;20034;-91
2021/11/14 05:30:36;;;;;;;0.10;0.10;;;8.30;99.90;;;;;;4994764;28;20030;-91
2021/11/14 05:33:03;;;;;;;0.10;0.10;;;8.40;99.90;;;;;;4995050;28;20042;-89
2021/11/14 05:35:29;;;;;;;0.10;0.10;;;8.40;99.90;;;;;;4994457;28;20062;-90
2021/11/14 05:37:55;;;;;;;0.10;0.10;;;8.30;99.90;;;;;;4995051;28;20030;-90
2021/11/14 05:40:21;;;;;;;0.10;0.10;;;8.30;99.90;;;;;;4997109;28;20018;-90
2021/11/14 05:42:47;;;;;;;0.10;0.10;;;8.40;99.90;;;;;;4990852;28;20033;-91
2021/11/14 05:45:13;;;;;;;0.10;0.10;;;8.40;99.90;;;;;;4991403;28;20122;-92
2021/11/14 05:47:39;;;;;;;0.10;0.10;;;8.50;99.90;;;;;;4990995;28;20086;-91
2021/11/14 05:50:07;;;;;;;0.10;0.10;;;8.50;99.90;;;;;;4992344;28;20034;-91
2021/11/14 05:52:33;;;;;;;0.10;0.10;;;8.50;99.90;;;;;;4992959;28;20210;-91
2021/11/14 05:54:59;;;;;;;0.10;0.10;;;8.50;99.90;;;;;;4994589;28;20030;-91
2021/11/14 05:57:38;;;;;;;0.10;0.10;;;8.50;99.90;;;;;;4996555;28;20065;-90
2021/11/14 06:00:13;;;;;;;0.10;0.10;;;8.50;99.90;;;;;;4994003;28;20034;-91
2021/11/14 06:02:53;;;;;;;0.20;0.20;;;8.60;99.90;;;;;;4993106;28;20076;-91
2021/11/14 06:05:19;;;;;;;0.10;0.10;;;8.50;99.90;;;;;;4995552;28;20138;-91
2021/11/14 06:07:46;;;;;;;0.17;0.17;;;8.50;99.90;;;;;;4997593;28;20033;-91
2021/11/14 06:10:13;;;;;;;0.10;0.10;;;8.50;99.90;;;;;;4996985;28;20029;-90
2021/11/14 06:12:40;;;;;;;0.10;0.10;;;8.50;99.90;;;;;;4996760;28;20029;-90
2021/11/14 06:15:08;;;;;;;0.10;0.10;;;8.40;99.90;;;;;;4996218;28;20042;-92
2021/11/14 06:17:34;;;;;;;0.20;0.20;;;8.40;99.90;;;;;;4994328;28;20093;-90
2021/11/14 06:20:00;;;;;;;0.10;0.10;;;8.50;99.90;;;;;;4999058;28;20113;-91
2021/11/14 06:22:25;;;;;;;1.10;1.08;;;8.50;99.90;;;;;;4995885;28;20507;-90
2021/11/14 06:24:51;;;;;;;0.43;0.43;;;8.30;99.90;;;;;;4995581;28;20106;-91
2021/11/14 06:27:17;;;;;;;0.10;0.10;;;8.10;99.90;;;;;;4994766;28;20033;-91
2021/11/14 06:29:43;;;;;;;0.10;0.10;;;8.10;99.90;;;;;;4992822;28;20497;-91
2021/11/14 06:32:09;;;;;;;0.13;0.13;;;8.10;99.90;;;;;;4993109;28;20026;-91
2021/11/14 06:34:35;;;;;;;0.10;0.10;;;8.20;99.90;;;;;;4996822;28;20022;-92
2021/11/14 06:37:01;;;;;;;0.10;0.10;;;8.20;99.90;;;;;;4991855;28;20038;-91
2021/11/14 06:39:27;;;;;;;0.10;0.10;;;8.10;99.90;;;;;;4993904;28;20026;-91
2021/11/14 06:41:53;;;;;;;0.10;0.10;;;8.10;99.90;;;;;;4990988;28;20504;-91
2021/11/14 06:44:19;;;;;;;0.95;0.95;;;8.20;99.90;;;;;;4994307;28;20038;-90
2021/11/14 06:46:44;;;;;;;0.10;0.10;;;8.10;99.90;;;;;;4990120;28;20022;-90
2021/11/14 06:49:10;;;;;;;0.20;0.20;;;8.10;99.90;;;;;;4990857;28;20030;-91
2021/11/14 06:51:36;;;;;;;0.20;0.20;;;8.00;99.90;;;;;;4993472;28;20328;-91
2021/11/14 06:54:02;;;;;;;0.10;0.10;;;8.10;99.90;;;;;;4993792;28;20030;-91
2021/11/14 06:56:28;;;;;;;0.10;0.10;;;8.10;99.90;;;;;;4993803;28;20094;-90
2021/11/14 06:58:53;;;;;;;0.65;0.65;;;8.00;99.90;;;;;;4993847;28;20022;-91
2021/11/14 07:01:19;;;;;;;0.10;0.10;;;7.90;99.90;;;;;;4993647;28;20026;-91
2021/11/14 07:03:45;;;;;;;0.20;0.20;;;8.10;99.90;;;;;;4995246;28;20026;-91
2021/11/14 07:06:11;;;;;;;0.10;0.10;;;8.20;99.90;;;;;;4994796;28;20030;-90
2021/11/14 07:08:36;;;;;;;0.20;0.20;;;8.20;99.90;;;;;;4999336;28;20010;-90
2021/11/14 07:11:02;;;;;;;0.30;0.30;;;8.20;99.90;;;;;;4994183;28;20022;-91
2021/11/14 07:13:28;;;;;;;0.35;0.35;;;8.20;99.90;;;;;;4997799;28;20010;-91
2021/11/14 07:15:54;;;;;;;0.20;0.20;;;8.00;99.90;;;;;;4994490;28;20038;-90
2021/11/14 07:18:20;;;;;;;0.57;0.57;;;7.90;99.90;;;;;;5003434;28;20038;-90
2021/11/14 07:20:45;;;;;;;0.10;0.10;;;7.90;99.90;;;;;;4992125;28;20065;-91
2021/11/14 07:23:11;;;;;;;0.20;0.20;;;7.90;99.90;;;;;;4991392;28;20037;-92
2021/11/14 07:25:37;;;;;;;0.20;0.20;;;7.90;99.90;;;;;;4997437;28;20094;-91
2021/11/14 07:28:03;;;;;;;0.73;0.73;;;7.90;99.90;;;;;;4992847;28;20026;-89
2021/11/14 07:30:30;;;;;;;0.10;0.10;;;8.00;99.90;;;;;;4990683;28;20046;-90
2021/11/14 07:32:55;;;;;;;3.95;3.00;;;8.00;99.90;;;;;;4992653;28;20022;-91
2021/11/14 07:35:23;;;;;;;0.73;0.70;;;8.10;99.90;;;;;;4993413;28;20050;-91
2021/11/14 07:37:49;;;;;;;1.73;1.63;;;8.00;99.90;;;;;;4996315;28;20525;-92
2021/11/14 07:40:17;;;;;;;0.68;0.68;;;8.00;99.90;;;;;;4990858;28;20046;-90
2021/11/14 07:42:45;;;;;;;0.20;0.20;;;7.80;99.90;;;;;;4976080;28;20053;-91
2021/11/14 07:45:13;;;;;;;0.13;0.13;;;7.80;99.90;;;;;;4983149;28;20056;-91
2021/11/14 07:47:39;;;;;;;0.10;0.10;;;7.80;99.90;;;;;;4996319;28;20503;-91
2021/11/14 07:50:09;;;;;;;0.10;0.10;;;7.90;99.90;;;;;;5002595;28;20026;-91
2021/11/14 07:52:35;;;;;;;0.20;0.20;;;7.90;99.90;;;;;;4998301;28;20021;-91
2021/11/14 07:55:07;;;;;;;1.42;1.33;;;7.90;99.90;;;;;;4982312;28;20113;-92
2021/11/14 07:57:44;;;;;;;2.30;0.68;;;8.00;99.90;;;;;;4980363;28;20034;-91
2021/11/14 08:00:25;;;;;;;0.70;0.70;;;8.10;99.90;;;;;;4995864;28;20033;-91
2021/11/14 08:02:52;;;;;;;0.22;0.22;;;8.10;99.90;;;;;;4978527;28;20102;-91
2021/11/14 08:05:21;;;;;;;2.05;1.95;;;8.00;99.90;;;;;;4979423;28;20034;-92
2021/11/14 08:07:48;;;;;;;0.17;0.17;;;7.90;99.90;;;;;;4979177;28;20060;-91
2021/11/14 08:10:17;;;;;;;1.80;0.75;;;7.90;99.90;;;;;;4982495;28;20068;-91
2021/11/14 08:12:43;;;;;;;0.32;0.32;;;8.00;99.90;;;;;;4996848;28;20026;-91
2021/11/14 08:15:10;;;;;;;2.55;1.95;;;8.10;99.90;;;;;;4998484;28;20037;-92
2021/11/14 08:17:36;;;;;;;0.17;0.17;;;8.00;99.90;;;;;;4998326;28;20018;-91
2021/11/14 08:20:08;;;;;;;0.25;0.25;;;8.00;99.90;;;;;;4999911;28;20088;-90
2021/11/14 08:22:50;;;;;;;0.65;0.65;;;8.10;99.90;;;;;;5000731;28;20029;-91
2021/11/14 08:25:29;;;;;;;0.70;0.70;;;8.20;99.90;;;;;;5000184;28;20045;-91
2021/11/14 08:28:01;;;;;;;1.08;1.08;;;8.20;99.90;;;;;;5019102;28;20026;-91
2021/11/14 08:30:49;;;;;;;0.10;0.10;;;8.20;99.90;;;;;;5000642;28;20052;-92
2021/11/14 08:33:50;;;;;;;2.03;1.00;;;8.20;99.90;;;;;;5000724;28;20018;-90
2021/11/14 08:36:47;;;;;;;0.10;0.10;;;8.20;99.90;;;;;;5021407;28;20045;-91
2021/11/14 08:39:13;;;;;;;0.10;0.10;;;8.10;99.90;;;;;;5000220;28;20045;-91
2021/11/14 08:41:39;;;;;;;0.22;0.22;;;8.10;99.90;;;;;;5000082;28;20033;-90
2021/11/14 08:44:07;;;;;;;0.10;0.10;;;8.10;99.90;;;;;;4998119;28;20034;-92
2021/11/14 08:46:37;;;;;;;0.43;0.43;;;8.00;99.90;;;;;;4980420;28;20050;-91
2021/11/14 08:49:04;;;;;;;0.20;0.20;;;8.10;99.90;;;;;;4980559;28;20037;-92
2021/11/14 08:51:35;;;;;;;0.10;0.10;;;8.00;99.90;;;;;;4974117;28;20026;-90
2021/11/14 08:54:10;;;;;;;1.10;0.85;;;8.00;99.90;;;;;;4978222;28;20052;-91
2021/11/14 08:56:54;;;;;;;0.30;0.30;;;8.00;99.90;;;;;;4982887;28;20038;-90
2021/11/14 08:59:31;;;;;;;0.40;0.40;;;8.20;99.90;;;;;;4982344;28;20038;-91
2021/11/14 09:02:06;;;;;;;0.47;0.47;;;8.20;99.90;;;;;;4982881;28;20014;-90
2021/11/14 09:04:32;;;;;;;2.22;2.05;;;8.20;99.90;;;;;;4983807;28;20030;-90
2021/11/14 09:06:59;;;;;;;2.47;1.73;;;8.30;99.90;;;;;;4983545;28;20026;-90
2021/11/14 09:09:30;;;;;;;2.65;2.45;;;8.30;99.90;;;;;;4983700;28;20010;-90
2021/11/14 09:11:56;;;;;;;0.73;0.73;;;8.30;99.90;;;;;;4984044;28;20010;-89
2021/11/14 09:14:23;;;;;;;2.13;1.92;;;8.20;99.90;;;;;;4983252;28;20041;-90
2021/11/14 09:16:53;;;;;;;0.20;0.20;;;8.10;99.90;;;;;;4982833;28;20030;-90
2021/11/14 09:19:23;;;;;;;0.82;0.82;;;8.10;99.90;;;;;;4982647;28;20038;-91
2021/11/14 09:21:49;;;;;;;0.22;0.22;;;8.10;99.90;;;;;;4983241;28;20034;-91
2021/11/14 09:24:15;;;;;;;0.68;0.68;;;8.10;99.90;;;;;;4983339;28;20010;-90
2021/11/14 09:26:43;;;;;;;3.40;3.08;;;8.20;99.90;;;;;;4983913;28;20042;-90
2021/11/14 09:29:12;;;;;;;0.45;0.45;;;8.10;99.90;;;;;;4982289;28;20110;-91
2021/11/14 09:31:41;;;;;;;2.00;1.58;;;8.00;99.90;;;;;;4983624;28;20085;-90
2021/11/14 09:34:07;;;;;;;0.10;0.10;;;7.90;99.90;;;;;;4984675;28;20014;-90
2021/11/14 09:36:35;;;;;;;0.20;0.20;;;7.80;99.90;;;;;;4984356;28;20046;-90
2021/11/14 09:39:05;;;;;;;2.72;2.50;;;7.80;99.90;;;;;;4998955;28;20023;-93
2021/11/14 09:41:35;;;;;;;1.55;1.20;;;7.90;99.90;;;;;;4983277;28;20053;-91
2021/11/14 09:44:01;;;;;;;2.70;2.28;;;8.00;99.90;;;;;;4981801;28;20029;-91
2021/11/14 09:46:30;;;;;;;2.95;2.72;;;7.80;99.90;;;;;;4981280;28;20014;-90
2021/11/14 09:49:08;;;;;;;0.73;0.73;;;7.80;99.90;;;;;;4984318;28;20018;-91
2021/11/14 09:51:34;;;;;;;0.20;0.20;;;7.70;99.90;;;;;;4984255;28;20022;-91
2021/11/14 09:54:00;;;;;;;1.52;1.45;;;7.70;99.90;;;;;;4982600;28;20027;-91
2021/11/14 09:56:26;;;;;;;0.40;0.40;;;7.60;99.90;;;;;;4982651;28;20029;-91
2021/11/14 09:58:52;;;;;;;1.05;1.00;;;7.70;99.90;;;;;;4984094;28;20014;-91
2021/11/14 10:01:17;;;;;;;0.65;0.65;;;7.80;99.90;;;;;;4982334;28;20027;-90
2021/11/14 10:03:45;;;;;;;1.42;1.33;;;7.70;99.90;;;;;;4982480;28;20026;-91
2021/11/14 10:06:11;;;;;;;7.13;4.28;;;7.70;99.90;;;;;;4982964;28;20022;-90
2021/11/14 10:08:42;;;;;;;0.98;0.98;;;7.60;99.90;;;;;;4982443;28;20027;-89
2021/11/14 10:11:08;;;;;;;1.70;1.60;;;7.50;99.90;;;;;;4983106;28;20126;-91
2021/11/14 10:13:39;;;;;;;4.78;4.03;;;7.50;99.90;;;;;;4979444;28;20029;-91
2021/11/14 10:16:20;;;;;;;13.37;6.63;;;7.40;99.90;;;;;;4980666;28;20092;-91
2021/11/14 10:19:03;;;;;;;4.25;2.85;;;7.00;99.90;;;;;;4980815;28;20288;-92
2021/11/14 10:21:47;;;;;;;24.52;8.15;;;6.70;99.90;;;;;;4981084;28;20019;-93
2021/11/14 10:24:42;;;;;;;3.53;1.95;;;6.50;99.90;;;;;;4979208;28;20010;-93
2021/11/14 10:27:30;;;;;;;0.20;0.20;;;6.70;99.90;;;;;;4970603;28;20022;-92
2021/11/14 10:30:08;;;;;;;1.15;0.90;;;6.80;99.90;;;;;;4985104;28;20027;-93
2021/11/14 10:32:37;;;;;;;0.20;0.20;;;6.90;99.90;;;;;;4985342;28;20018;-93
2021/11/14 10:35:10;;;;;;;0.30;0.30;;;7.00;99.90;;;;;;5002102;28;20026;-93
2021/11/14 10:38:09;;;;;;;0.73;0.73;;;7.10;99.90;;;;;;4982656;28;20034;-94
2021/11/14 10:40:42;;;;;;;1.77;0.90;;;7.30;99.90;;;;;;5000986;28;20027;-93
2021/11/14 10:43:11;;;;;;;3.25;2.95;;;7.30;99.90;;;;;;4997467;28;20046;-93
2021/11/14 10:45:46;;;;;;;2.85;2.70;;;7.10;99.90;;;;;;4984011;28;20030;-93
2021/11/14 10:48:26;;;;;;;7.90;6.50;;;7.10;99.90;;;;;;4982975;28;20029;-93
2021/11/14 10:51:11;;;;;;;20.30;5.25;;;7.10;99.90;;;;;;4999737;28;20038;-92
2021/11/14 10:53:49;;;;;;;;;;;;;;;;;;;;;
2021/11/14 10:56:18;;;;;;;0.20;0.20;;;7.00;99.90;;;;;;4984044;28;20139;-92
2021/11/14 10:58:56;;;;;;;1.52;1.45;;;7.00;99.90;;;;;;4969475;28;20538;-91
2021/11/14 11:01:31;;;;;;;0.47;0.47;;;7.10;99.90;;;;;;4972066;28;20027;-92
2021/11/14 11:04:14;;;;;;;4.32;3.00;;;7.20;99.90;;;;;;4972941;28;20027;-91
2021/11/14 11:06:52;;;;;;;2.75;2.15;;;7.10;99.90;;;;;;4973267;28;20113;-91
2021/11/14 11:09:36;;;;;;;8.15;5.82;;;6.90;99.90;;;;;;4983254;28;20053;-90
2021/11/14 11:12:22;;;;;;;3.80;3.33;;;6.90;99.90;;;;;;4970866;28;20034;-91
2021/11/14 11:14:58;;;;;;;8.05;3.85;;;6.90;99.90;;;;;;4970593;28;20081;-91
2021/11/14 11:17:54;;;;;;;0.15;0.15;;;6.90;99.90;;;;;;4970435;28;20034;-92
2021/11/14 11:20:31;;;;;;;0.30;0.30;;;7.10;99.90;;;;;;4963536;28;20054;-92
2021/11/14 11:23:03;;;;;;;1.38;1.27;;;7.20;99.90;;;;;;4981205;28;20072;-92
2021/11/14 11:29:44;;;;;;;0.60;0.60;;;6.90;99.90;;;;;;5008533;28;20022;-92
2021/11/14 11:32:48;;;;;;;0.75;0.75;;;6.90;99.90;;;;;;4992955;28;20110;-92
2021/11/14 11:35:24;;;;;;;4.47;3.17;;;7.00;99.90;;;;;;4970397;28;20065;-92
2021/11/14 11:37:55;;;;;;;3.22;2.97;;;6.80;99.90;;;;;;5007637;28;20022;-91
2021/11/14 11:40:34;;;;;;;3.55;1.95;;;6.60;99.90;;;;;;4976402;28;20025;-92
2021/11/14 11:43:03;;;;;;;5.97;3.85;;;6.60;99.90;;;;;;4972416;28;20035;-91
2021/11/14 11:45:44;;;;;;;0.65;0.65;;;6.60;99.90;;;;;;4973525;28;20046;-92
2021/11/14 11:48:50;;;;;;;8.03;3.83;;;6.70;99.90;;;;;;4983115;28;20007;-93
2021/11/14 11:51:29;;;;;;;3.80;1.15;;;6.60;99.90;;;;;;4966079;28;20082;-91
2021/11/14 11:53:59;;;;;;;1.35;0.88;;;6.50;99.90;;;;;;4987703;28;20435;-92
2021/11/14 11:56:59;;;;;;;0.30;0.30;;;6.40;99.90;;;;;;4973440;28;20038;-92
2021/11/14 11:59:28;;;;;;;10.68;2.33;;;6.40;99.90;;;;;;4970711;28;20034;-92
2021/11/14 12:02:13;;;;;;;4.95;2.20;;;6.50;99.90;;;;;;4973664;28;20030;-92
2021/11/14 12:04:44;;;;;;;1.30;1.30;;;6.60;99.90;;;;;;4973620;28;20023;-92
2021/11/14 12:07:26;;;;;;;1.45;1.23;;;6.50;99.90;;;;;;4965783;28;20400;-91
2021/11/14 12:10:21;;;;;;;2.67;2.35;;;6.60;99.90;;;;;;4975829;28;20031;-93
2021/11/14 12:13:07;;;;;;;0.30;0.30;;;6.60;99.90;;;;;;4973453;28;20392;-92
2021/11/14 12:15:39;;;;;;;0.43;0.43;;;6.70;99.90;;;;;;4987686;28;20073;-92
2021/11/14 12:18:13;;;;;;;3.15;2.85;;;6.80;99.90;;;;;;4972957;28;20057;-92
2021/11/14 12:20:52;;;;;;;1.35;1.25;;;6.90;99.90;;;;;;4974155;28;20052;-92
2021/11/14 12:23:38;;;;;;;0.77;0.77;;;6.90;99.90;;;;;;4985193;28;20034;-93
2021/11/14 12:26:13;;;;;;;3.28;3.10;;;6.90;99.90;;;;;;4973876;28;20031;-92
2021/11/14 12:28:59;;;;;;;11.50;2.17;;;6.80;99.90;;;;;;4990409;28;20094;-92
2021/11/14 12:31:29;;;;;;;0.20;0.20;;;6.70;99.90;;;;;;4973355;28;20049;-92
2021/11/14 12:34:07;;;;;;;0.40;0.40;;;6.70;99.90;;;;;;4972857;28;20555;-92
2021/11/14 12:36:40;;;;;;;0.73;0.73;;;6.70;99.90;;;;;;4971923;28;20117;-92
2021/11/14 12:39:12;;;;;;;12.30;3.17;;;6.70;99.90;;;;;;4986079;28;20023;-92
2021/11/14 12:41:58;;;;;;;;;;;6.60;99.90;;;;;;4969164;28;20027;-92
2021/11/14 12:45:12;;;;;;;2.83;1.23;;;6.60;99.90;;;;;;4984559;28;19992;-93
2021/11/14 12:48:19;;;;;;;;;;;;;;;;;;;;;
2021/11/14 12:51:45;;;;;;;0.43;0.43;;;6.70;99.90;;;;;;4968653;28;20053;-92
2021/11/14 12:54:17;;;;;;;0.20;0.20;;;6.80;99.90;;;;;;4943352;28;20058;-92
2021/11/14 12:56:55;;;;;;;0.38;0.38;;;7.00;99.90;;;;;;4967804;28;20026;-92
2021/11/14 12:59:31;;;;;;;0.20;0.20;;;6.80;99.90;;;;;;4951708;28;20033;-91
2021/11/14 13:02:26;;;;;;;1.10;1.10;;;6.80;99.90;;;;;;4970023;28;20472;-91
2021/11/14 13:05:10;;;;;;;1.65;1.27;;;6.70;99.90;;;;;;4971618;28;20051;-92
2021/11/14 13:07:57;;;;;;;0.85;0.82;;;6.60;99.90;;;;;;4973944;28;20035;-92
2021/11/14 13:10:26;;;;;;;7.03;1.77;;;6.80;99.90;;;;;;4980847;28;20007;-92
2021/11/14 13:13:00;;;;;;;0.20;0.20;;;6.70;99.90;;;;;;4984936;28;20035;-91
2021/11/14 13:15:30;;;;;;;0.75;0.75;;;6.80;99.90;;;;;;4995558;28;20058;-94
2021/11/14 13:17:57;;;;;;;0.77;0.75;;;6.80;99.90;;;;;;4983816;28;20033;-92
2021/11/14 13:20:30;;;;;;;1.45;1.35;;;6.80;99.90;;;;;;4985477;28;20039;-93
2021/11/14 13:23:05;;;;;;;2.55;2.35;;;6.80;99.90;;;;;;4985191;28;20090;-94